createdAt,value
2022-08-27T00:02:08.378Z,98813.09
2022-08-27T00:04:36.798Z,98806.94
2022-08-27T00:07:06.036Z,98813.78
2022-08-27T00:09:34.659Z,98822.78
2022-08-27T00:12:04.208Z,98820.66
2022-08-27T00:14:31.813Z,98825.00
2022-08-27T00:16:59.297Z,98823.97
2022-08-27T00:19:28.549Z,98822.16
2022-08-27T00:21:56.206Z,98824.38
2022-08-27T00:24:23.669Z,98826.34
2022-08-27T00:26:53.361Z,98830.28
2022-08-27T00:29:21.046Z,98834.66
2022-08-27T00:31:53.223Z,98835.56
2022-08-27T00:34:23.994Z,98834.56
2022-08-27T00:36:53.248Z,98833.75
2022-08-27T00:39:20.976Z,98831.13
2022-08-27T00:41:48.592Z,98837.94
2022-08-27T00:44:16.252Z,98825.28
2022-08-27T00:46:49.412Z,98828.06
2022-08-27T00:50:01.328Z,98827.63
2022-08-27T00:52:37.058Z,98825.00
2022-08-27T00:55:18.631Z,98838.63
2022-08-27T00:57:55.164Z,98839.50
2022-08-27T01:00:22.677Z,98837.19
2022-08-27T01:02:50.516Z,98827.78
2022-08-27T01:05:25.377Z,98831.88
2022-08-27T01:07:59.371Z,98832.44
2022-08-27T01:10:29.491Z,98832.75
2022-08-27T01:12:57.673Z,98831.44
2022-08-27T01:15:28.526Z,98828.50
2022-08-27T01:17:57.977Z,98834.22
2022-08-27T01:20:35.565Z,98835.38
2022-08-27T01:23:54.907Z,98831.72
2022-08-27T01:26:25.066Z,98833.91
2022-08-27T01:28:53.147Z,98823.13
2022-08-27T01:31:21.309Z,98836.66
2022-08-27T01:34:01.808Z,98831.03
2022-08-27T01:36:30.333Z,98831.84
2022-08-27T01:38:58.033Z,98825.38
2022-08-27T01:41:26.269Z,98822.75
2022-08-27T01:43:54.098Z,98826.03
2022-08-27T01:46:27.122Z,98811.75
2022-08-27T01:48:55.371Z,98822.06
2022-08-27T01:51:23.050Z,98827.22
2022-08-27T01:53:51.113Z,98823.19
2022-08-27T01:56:18.366Z,98837.59
2022-08-27T01:58:45.973Z,98824.66
2022-08-27T02:01:16.885Z,98831.44
2022-08-27T02:03:44.763Z,98828.50
2022-08-27T02:06:12.734Z,98825.88
2022-08-27T02:08:40.828Z,98819.66
2022-08-27T02:11:08.740Z,98824.84
2022-08-27T02:13:37.040Z,98824.84
2022-08-27T02:16:05.285Z,98829.72
2022-08-27T02:18:32.778Z,98829.78
2022-08-27T02:21:00.368Z,98824.97
2022-08-27T02:23:27.458Z,98826.03
2022-08-27T02:25:54.649Z,98827.97
2022-08-27T02:28:22.353Z,98827.78
2022-08-27T02:30:49.421Z,98833.75
2022-08-27T02:33:16.838Z,98830.00
2022-08-27T02:35:44.393Z,98830.28
2022-08-27T02:38:13.485Z,98828.44
2022-08-27T02:40:41.276Z,98828.44
2022-08-27T02:43:09.320Z,98832.81
2022-08-27T02:45:37.770Z,98832.28
2022-08-27T02:48:06.181Z,98830.69
2022-08-27T02:50:35.265Z,98826.38
2022-08-27T02:53:04.900Z,98821.56
2022-08-27T02:55:33.406Z,98822.41
2022-08-27T02:58:01.786Z,98818.06
2022-08-27T03:00:29.876Z,98815.66
2022-08-27T03:02:57.988Z,98822.72
2022-08-27T03:05:26.602Z,98819.50
2022-08-27T03:07:53.769Z,98819.00
2022-08-27T03:10:22.473Z,98810.13
2022-08-27T03:12:50.389Z,98813.69
2022-08-27T03:15:19.892Z,98810.22
2022-08-27T03:18:07.084Z,98816.44
2022-08-27T03:20:41.295Z,98815.34
2022-08-27T03:23:10.393Z,98818.56
2022-08-27T03:25:38.821Z,98822.91
2022-08-27T03:28:06.397Z,98823.50
2022-08-27T03:30:54.704Z,98820.81
2022-08-27T03:33:22.334Z,98825.16
2022-08-27T03:35:52.034Z,98822.44
2022-08-27T03:38:20.714Z,98818.72
2022-08-27T03:40:48.840Z,98823.59
2022-08-27T03:43:18.879Z,98812.81
2022-08-27T03:46:00.332Z,98815.53
2022-08-27T03:48:32.273Z,98812.84
2022-08-27T03:51:07.908Z,98813.91
2022-08-27T03:53:37.648Z,98821.50
2022-08-27T03:56:06.336Z,98824.22
2022-08-27T03:58:35.878Z,98823.19
2022-08-27T04:01:05.641Z,98819.66
2022-08-27T04:03:35.266Z,98823.72
2022-08-27T04:06:03.531Z,98822.66
2022-08-27T04:08:31.161Z,98824.28
2022-08-27T04:10:58.212Z,98824.28
2022-08-27T04:13:25.725Z,98822.69
2022-08-27T04:15:55.421Z,98826.44
2022-08-27T04:18:22.757Z,98823.22
2022-08-27T04:20:52.674Z,98820.53
2022-08-27T04:23:20.786Z,98824.28
2022-08-27T04:25:47.945Z,98821.56
2022-08-27T04:28:16.572Z,98828.09
2022-08-27T04:30:46.698Z,98830.22
2022-08-27T04:33:14.844Z,98827.75
2022-08-27T04:35:43.197Z,98826.94
2022-08-27T04:38:10.754Z,98821.50
2022-08-27T04:40:58.186Z,98825.78
2022-08-27T04:43:28.158Z,98828.47
2022-08-27T04:45:55.478Z,98822.75
2022-08-27T04:48:22.530Z,98824.34
2022-08-27T04:50:50.361Z,98819.69
2022-08-27T04:53:18.596Z,98824.25
2022-08-27T04:55:53.429Z,98832.56
2022-08-27T04:58:23.612Z,98828.72
2022-08-27T05:01:00.092Z,98823.28
2022-08-27T05:03:31.609Z,98825.38
2022-08-27T05:06:05.731Z,98817.69
2022-08-27T05:08:34.617Z,98833.84
2022-08-27T05:11:02.449Z,98821.28
2022-08-27T05:13:30.081Z,98828.22
2022-08-27T05:16:06.001Z,98826.97
2022-08-27T05:18:41.713Z,98829.03
2022-08-27T05:21:32.006Z,98821.25
2022-08-27T05:24:04.606Z,98832.97
2022-08-27T05:26:34.989Z,98817.66
2022-08-27T05:29:06.550Z,98820.13
2022-08-27T05:31:34.706Z,98822.56
2022-08-27T05:34:10.719Z,98810.94
2022-08-27T05:36:48.029Z,98812.81
2022-08-27T05:39:17.527Z,98814.91
2022-08-27T05:41:45.295Z,98807.50
2022-08-27T05:44:46.289Z,98815.59
2022-08-27T05:47:00.146Z,98810.38
2022-08-27T05:49:27.217Z,98819.84
2022-08-27T05:51:54.464Z,98813.81
2022-08-27T05:54:22.156Z,98810.16
2022-08-27T05:56:50.509Z,98823.41
2022-08-27T05:59:37.493Z,98815.53
2022-08-27T06:02:06.987Z,98826.75
2022-08-27T06:04:34.682Z,98826.44
2022-08-27T06:07:04.340Z,98833.88
2022-08-27T06:09:33.470Z,98835.97
2022-08-27T06:12:02.406Z,98827.78
2022-08-27T06:14:30.329Z,98836.19
2022-08-27T06:17:02.604Z,98835.25
2022-08-27T06:19:30.346Z,98822.72
2022-08-27T06:22:00.129Z,98825.06
2022-08-27T06:24:30.029Z,98824.16
2022-08-27T06:26:57.489Z,98818.13
2022-08-27T06:29:25.081Z,98821.97
2022-08-27T06:31:55.039Z,98821.00
2022-08-27T06:34:22.346Z,98827.25
2022-08-27T06:36:50.043Z,98829.31
2022-08-27T06:39:17.713Z,98832.03
2022-08-27T06:41:46.054Z,98835.16
2022-08-27T06:44:14.286Z,98832.88
2022-08-27T06:46:43.488Z,98828.75
2022-08-27T06:49:12.829Z,98835.47
2022-08-27T06:51:45.538Z,98832.53
2022-08-27T06:54:15.375Z,98836.75
2022-08-27T06:56:44.419Z,98840.53
2022-08-27T06:59:16.373Z,98839.41
2022-08-27T07:01:51.380Z,98839.69
2022-08-27T07:04:27.843Z,98842.00
2022-08-27T07:07:04.711Z,98833.72
2022-08-27T07:09:33.916Z,98837.50
2022-08-27T07:12:01.609Z,98837.47
2022-08-27T07:14:34.273Z,98829.00
2022-08-27T07:17:06.184Z,98834.41
2022-08-27T07:19:41.090Z,98832.78
2022-08-27T07:22:09.617Z,98835.94
2022-08-27T07:24:38.147Z,98830.31
2022-08-27T07:27:06.840Z,98827.09
2022-08-27T07:29:34.708Z,98827.78
2022-08-27T07:32:02.168Z,98825.47
2022-08-27T07:34:29.516Z,98827.50
2022-08-27T07:36:56.947Z,98832.69
2022-08-27T07:39:24.041Z,98829.72
2022-08-27T07:42:10.124Z,98834.91
2022-08-27T07:44:37.985Z,98834.63
2022-08-27T07:47:05.209Z,98837.22
2022-08-27T07:49:34.977Z,98843.81
2022-08-27T07:52:03.877Z,98852.59
2022-08-27T07:54:31.196Z,98852.25
2022-08-27T07:56:59.382Z,98853.69
2022-08-27T07:59:27.618Z,98850.19
2022-08-27T08:01:56.948Z,98855.88
2022-08-27T08:04:24.911Z,98859.84
2022-08-27T08:06:53.623Z,98860.13
2022-08-27T08:09:23.816Z,98857.91
2022-08-27T08:11:54.439Z,98861.72
2022-08-27T08:14:22.299Z,98854.47
2022-08-27T08:16:49.750Z,98857.38
2022-08-27T08:19:17.493Z,98860.00
2022-08-27T08:21:45.080Z,98861.47
2022-08-27T08:24:12.133Z,98855.97
2022-08-27T08:26:41.710Z,98860.72
2022-08-27T08:29:09.279Z,98864.56
2022-08-27T08:31:42.608Z,98859.53
2022-08-27T08:34:10.669Z,98863.94
2022-08-27T08:36:42.429Z,98849.19
2022-08-27T08:39:13.457Z,98850.91
2022-08-27T08:41:54.221Z,98855.22
2022-08-27T08:44:41.386Z,98854.75
2022-08-27T08:47:26.621Z,98851.44
2022-08-27T08:50:19.583Z,98857.09
2022-08-27T08:53:07.197Z,98856.09
2022-08-27T08:56:01.918Z,98849.16
2022-08-27T08:58:55.872Z,98853.25
2022-08-27T09:01:24.741Z,98858.94
2022-08-27T09:04:00.529Z,98848.84
2022-08-27T09:06:45.313Z,98846.59
2022-08-27T09:09:23.921Z,98843.13
2022-08-27T09:12:11.827Z,98843.66
2022-08-27T09:15:02.568Z,98854.00
2022-08-27T09:17:33.519Z,98851.28
2022-08-27T09:20:00.965Z,98849.41
2022-08-27T09:23:06.677Z,98856.97
2022-08-27T09:25:40.952Z,98853.84
2022-08-27T09:28:43.070Z,98856.63
2022-08-27T09:31:16.953Z,98849.53
2022-08-27T09:33:56.431Z,98854.69
2022-08-27T09:36:25.412Z,98851.94
2022-08-27T09:39:04.344Z,98851.16
2022-08-27T09:41:43.488Z,98850.75
2022-08-27T09:44:14.388Z,98832.09
2022-08-27T09:46:58.638Z,98829.72
2022-08-27T09:49:27.032Z,98833.28
2022-08-27T09:51:56.438Z,98839.63
2022-08-27T09:54:46.562Z,98837.25
2022-08-27T09:57:31.382Z,98830.47
2022-08-27T09:59:58.881Z,98823.34
2022-08-27T10:02:27.427Z,98825.72
2022-08-27T10:05:02.981Z,98832.06
2022-08-27T10:07:53.848Z,98828.88
2022-08-27T10:10:37.113Z,98828.84
2022-08-27T10:13:57.435Z,98827.25
2022-08-27T10:17:02.683Z,98833.56
2022-08-27T10:19:47.644Z,98834.78
2022-08-27T10:22:32.534Z,98835.84
2022-08-27T10:25:32.009Z,98824.03
2022-08-27T10:28:17.736Z,98828.00
2022-08-27T10:31:34.408Z,98820.38
2022-08-27T10:34:32.204Z,98815.22
2022-08-27T10:37:52.199Z,98815.97
2022-08-27T10:40:39.149Z,98814.72
2022-08-27T10:43:32.786Z,98819.16
2022-08-27T10:46:52.157Z,98809.19
2022-08-27T10:49:44.833Z,98812.75
2022-08-27T10:52:29.120Z,98815.06
2022-08-27T10:55:03.257Z,98814.25
2022-08-27T10:58:08.359Z,98801.34
2022-08-27T11:01:12.458Z,98803.38
2022-08-27T11:04:17.461Z,98809.50
2022-08-27T11:07:08.170Z,98809.91
2022-08-27T11:09:57.258Z,98812.28
2022-08-27T11:12:46.737Z,98818.81
2022-08-27T11:15:25.643Z,98816.88
2022-08-27T11:18:11.788Z,98822.69
2022-08-27T11:21:13.243Z,98813.19
2022-08-27T11:23:57.317Z,98804.44
2022-08-27T11:26:24.985Z,98809.34
2022-08-27T11:29:00.336Z,98804.59
2022-08-27T11:32:12.207Z,98802.97
2022-08-27T11:35:06.581Z,98798.91
2022-08-27T11:38:06.850Z,98795.59
2022-08-27T11:40:34.556Z,98785.91
2022-08-27T11:43:09.134Z,98793.78
2022-08-27T11:46:05.080Z,98784.88
2022-08-27T11:48:54.952Z,98782.31
2022-08-27T11:51:40.388Z,98773.75
2022-08-27T11:54:22.241Z,98776.81
2022-08-27T11:56:50.258Z,98777.06
2022-08-27T11:59:26.634Z,98774.56
2022-08-27T12:01:59.711Z,98768.84
2022-08-27T12:04:41.946Z,98761.44
2022-08-27T12:07:18.397Z,98768.88
2022-08-27T12:10:00.485Z,98764.28
2022-08-27T12:13:08.602Z,98764.56
2022-08-27T12:16:12.593Z,98761.19
2022-08-27T12:18:57.086Z,98753.31
2022-08-27T12:21:39.069Z,98758.31
2022-08-27T12:24:55.708Z,98752.78
2022-08-27T12:27:28.355Z,98754.53
2022-08-27T12:30:02.676Z,98747.16
2022-08-27T12:32:35.974Z,98746.00
2022-08-27T12:35:20.244Z,98749.25
2022-08-27T12:38:10.061Z,98745.19
2022-08-27T12:41:00.175Z,98732.72
2022-08-27T12:43:33.639Z,98738.31
2022-08-27T12:46:08.532Z,98730.44
2022-08-27T12:48:56.916Z,98729.22
2022-08-27T12:51:37.533Z,98726.16
2022-08-27T12:54:35.846Z,98723.25
2022-08-27T12:57:20.342Z,98720.50
2022-08-27T13:00:19.752Z,98721.84
2022-08-27T13:03:29.237Z,98720.94
2022-08-27T13:05:57.817Z,98725.25
2022-08-27T13:08:36.877Z,98724.34
2022-08-27T13:11:24.443Z,98721.03
2022-08-27T13:14:03.493Z,98718.56
2022-08-27T13:16:31.959Z,98716.22
2022-08-27T13:19:00.177Z,98715.44
2022-08-27T13:21:32.776Z,98704.06
2022-08-27T13:24:05.492Z,98712.28
2022-08-27T13:26:37.453Z,98713.97
2022-08-27T13:29:09.147Z,98712.28
2022-08-27T13:31:38.471Z,98704.53
2022-08-27T13:34:07.020Z,98705.84
2022-08-27T13:36:58.025Z,98695.56
2022-08-27T13:39:27.717Z,98689.06
2022-08-27T13:41:59.389Z,98687.00
2022-08-27T13:44:40.866Z,98694.66
2022-08-27T13:47:24.921Z,98687.56
2022-08-27T13:50:07.705Z,98688.53
2022-08-27T13:53:02.450Z,98679.06
2022-08-27T13:55:31.009Z,98689.34
2022-08-27T13:58:20.000Z,98693.50
2022-08-27T14:00:47.644Z,98694.91
2022-08-27T14:03:45.049Z,98691.88
2022-08-27T14:06:40.509Z,98686.31
2022-08-27T14:09:26.530Z,98681.19
2022-08-27T14:12:08.251Z,98694.91
2022-08-27T14:14:41.730Z,98697.44
2022-08-27T14:17:29.721Z,98690.75
2022-08-27T14:20:02.297Z,98697.94
2022-08-27T14:22:34.280Z,98698.03
2022-08-27T14:25:02.586Z,98692.72
2022-08-27T14:27:29.858Z,98690.56
2022-08-27T14:29:58.250Z,98690.34
2022-08-27T14:32:25.348Z,98693.41
2022-08-27T14:34:53.413Z,98700.38
2022-08-27T14:37:20.866Z,98702.94
2022-08-27T14:39:48.366Z,98710.28
2022-08-27T14:42:17.564Z,98702.75
2022-08-27T14:44:45.355Z,98708.69
2022-08-27T14:47:16.026Z,98710.28
2022-08-27T14:49:47.133Z,98706.88
2022-08-27T14:52:15.431Z,98710.00
2022-08-27T14:54:44.893Z,98717.91
2022-08-27T14:57:12.555Z,98722.56
2022-08-27T14:59:40.532Z,98721.22
2022-08-27T15:02:14.013Z,98723.75
2022-08-27T15:04:42.355Z,98723.97
2022-08-27T15:07:14.504Z,98728.91
2022-08-27T15:09:41.892Z,98727.53
2022-08-27T15:12:15.069Z,98737.31
2022-08-27T15:14:54.316Z,98731.16
2022-08-27T15:17:35.510Z,98732.50
2022-08-27T15:20:16.959Z,98729.91
2022-08-27T15:22:52.133Z,98738.06
2022-08-27T15:25:20.960Z,98728.25
2022-08-27T15:27:49.746Z,98741.53
2022-08-27T15:30:24.351Z,98736.91
2022-08-27T15:32:52.224Z,98736.25
2022-08-27T15:35:26.508Z,98732.38
2022-08-27T15:37:57.197Z,98729.31
2022-08-27T15:40:28.504Z,98738.09
2022-08-27T15:43:02.313Z,98739.78
2022-08-27T15:45:32.337Z,98734.69
2022-08-27T15:48:01.358Z,98726.41
2022-08-27T15:50:31.084Z,98735.56
2022-08-27T15:53:04.844Z,98739.19
2022-08-27T15:55:37.465Z,98731.34
2022-08-27T15:58:06.112Z,98744.84
2022-08-27T16:00:35.988Z,98741.72
2022-08-27T16:03:09.263Z,98745.66
2022-08-27T16:05:40.566Z,98749.63
2022-08-27T16:08:09.094Z,98747.22
2022-08-27T16:10:36.750Z,98752.78
2022-08-27T16:13:04.923Z,98751.19
2022-08-27T16:15:37.518Z,98744.81
2022-08-27T16:18:04.910Z,98747.94
2022-08-27T16:20:32.134Z,98752.69
2022-08-27T16:23:00.610Z,98744.34
2022-08-27T16:25:28.854Z,98748.28
2022-08-27T16:27:57.923Z,98746.25
2022-08-27T16:30:26.876Z,98745.38
2022-08-27T16:32:55.059Z,98753.25
2022-08-27T16:35:23.693Z,98755.59
2022-08-27T16:37:52.249Z,98751.19
2022-08-27T16:40:19.592Z,98755.50
2022-08-27T16:42:50.731Z,98761.34
2022-08-27T16:45:26.250Z,98760.09
2022-08-27T16:48:12.580Z,98762.41
2022-08-27T16:50:42.076Z,98764.75
2022-08-27T16:53:15.505Z,98759.53
2022-08-27T16:55:45.424Z,98764.59
2022-08-27T16:58:22.530Z,98778.31
2022-08-27T17:00:54.048Z,98788.09
2022-08-27T17:03:24.006Z,98787.63
2022-08-27T17:05:51.761Z,98788.72
2022-08-27T17:08:26.092Z,98788.66
2022-08-27T17:10:56.599Z,98793.72
2022-08-27T17:13:29.710Z,98790.03
2022-08-27T17:15:57.460Z,98795.44
2022-08-27T17:18:27.723Z,98794.94
2022-08-27T17:20:59.131Z,98794.00
2022-08-27T17:23:41.102Z,98801.81
2022-08-27T17:26:11.332Z,98804.38
2022-08-27T17:28:40.777Z,98805.84
2022-08-27T17:31:11.981Z,98815.97
2022-08-27T17:33:45.193Z,98815.41
2022-08-27T17:36:15.191Z,98818.81
2022-08-27T17:38:43.468Z,98816.72
2022-08-27T17:41:22.011Z,98825.59
2022-08-27T17:43:50.127Z,98816.75
2022-08-27T17:46:17.900Z,98812.66
2022-08-27T17:48:45.674Z,98807.00
2022-08-27T17:51:13.638Z,98799.75
2022-08-27T17:53:48.596Z,98801.16
2022-08-27T17:56:19.190Z,98805.31
2022-08-27T17:58:48.606Z,98809.09
2022-08-27T18:01:28.330Z,98815.63
2022-08-27T18:03:57.848Z,98818.25
2022-08-27T18:06:27.628Z,98820.78
2022-08-27T18:08:54.902Z,98822.19
2022-08-27T18:11:22.671Z,98827.50
2022-08-27T18:13:55.174Z,98822.66
2022-08-27T18:16:23.000Z,98810.72
2022-08-27T18:18:51.091Z,98819.25
2022-08-27T18:21:25.616Z,98828.94
2022-08-27T18:23:54.434Z,98836.34
2022-08-27T18:26:27.516Z,98831.13
2022-08-27T18:28:57.458Z,98836.91
2022-08-27T18:31:31.484Z,98848.56
2022-08-27T18:34:01.139Z,98865.69
2022-08-27T18:36:29.630Z,98876.19
2022-08-27T18:38:57.086Z,98867.75
2022-08-27T18:41:29.213Z,98869.97
2022-08-27T18:43:56.973Z,98873.00
2022-08-27T18:46:24.526Z,98882.59
2022-08-27T18:48:52.164Z,98881.09
2022-08-27T18:51:20.209Z,98887.22
2022-08-27T18:53:48.774Z,98884.72
2022-08-27T18:56:19.437Z,98891.84
2022-08-27T18:58:48.293Z,98894.34
2022-08-27T19:01:25.352Z,98892.44
2022-08-27T19:03:56.584Z,98902.69
2022-08-27T19:06:24.037Z,98901.44
2022-08-27T19:08:52.370Z,98902.06
2022-08-27T19:11:20.204Z,98910.91
2022-08-27T19:13:50.667Z,98907.50
2022-08-27T19:16:43.943Z,98915.13
2022-08-27T19:19:15.433Z,98908.97
2022-08-27T19:21:43.843Z,98908.16
2022-08-27T19:24:12.965Z,98912.47
2022-08-27T19:26:41.486Z,98911.00
2022-08-27T19:29:10.102Z,98914.19
2022-08-27T19:31:38.470Z,98925.88
2022-08-27T19:34:08.637Z,98921.97
2022-08-27T19:36:41.825Z,98919.94
2022-08-27T19:39:13.062Z,98927.13
2022-08-27T19:41:40.289Z,98919.81
2022-08-27T19:44:08.472Z,98917.38
2022-08-27T19:46:36.746Z,98928.06
2022-08-27T19:49:04.211Z,98932.88
2022-08-27T19:51:31.480Z,98930.59
2022-08-27T19:53:59.182Z,98941.47
2022-08-27T19:56:28.725Z,98933.56
2022-08-27T19:58:59.842Z,98927.84
2022-08-27T20:01:31.097Z,98937.44
2022-08-27T20:03:59.076Z,98941.03
2022-08-27T20:06:28.457Z,98947.41
2022-08-27T20:08:57.233Z,98952.06
2022-08-27T20:11:24.501Z,98950.34
2022-08-27T20:13:51.582Z,98943.97
2022-08-27T20:16:19.827Z,98950.75
2022-08-27T20:18:47.029Z,98948.22
2022-08-27T20:21:14.106Z,98952.66
2022-08-27T20:23:41.749Z,98959.56
2022-08-27T20:26:09.318Z,98964.97
2022-08-27T20:28:39.792Z,98979.47
2022-08-27T20:31:08.392Z,98987.59
2022-08-27T20:33:35.472Z,98980.91
2022-08-27T20:36:03.713Z,98980.91
2022-08-27T20:38:31.377Z,98983.50
2022-08-27T20:40:58.429Z,98975.78
2022-08-27T20:43:25.467Z,98959.25
2022-08-27T20:45:53.154Z,98945.31
2022-08-27T20:48:20.771Z,98922.44
2022-08-27T20:50:47.978Z,98910.25
2022-08-27T20:53:15.609Z,98901.81
2022-08-27T20:55:42.922Z,98886.69
2022-08-27T20:58:28.361Z,98876.41
2022-08-27T21:00:57.248Z,98863.16
2022-08-27T21:03:24.610Z,98854.31
2022-08-27T21:05:52.463Z,98847.88
2022-08-27T21:08:21.793Z,98844.38
2022-08-27T21:10:53.955Z,98845.41
2022-08-27T21:13:22.754Z,98845.22
2022-08-27T21:15:54.543Z,98848.28
2022-08-27T21:18:29.560Z,98852.78
2022-08-27T21:20:59.854Z,98851.31
2022-08-27T21:23:29.158Z,98861.13
2022-08-27T21:26:07.302Z,98863.84
2022-08-27T21:28:34.942Z,98860.31
2022-08-27T21:31:02.148Z,98855.34
2022-08-27T21:33:29.383Z,98854.06
2022-08-27T21:35:56.991Z,98849.88
2022-08-27T21:38:23.988Z,98859.81
2022-08-27T21:40:51.386Z,98860.44
2022-08-27T21:43:18.993Z,98869.59
2022-08-27T21:45:46.260Z,98860.13
2022-08-27T21:48:14.011Z,98864.00
2022-08-27T21:50:41.763Z,98863.84
2022-08-27T21:53:09.073Z,98863.69
2022-08-27T21:55:36.331Z,98860.47
2022-08-27T21:58:04.653Z,98857.25
2022-08-27T22:04:05.403Z,98850.84
2022-08-27T22:06:32.793Z,98846.84
2022-08-27T22:09:00.604Z,98859.84
2022-08-27T22:11:30.669Z,98847.97
2022-08-27T22:13:58.483Z,98850.22
2022-08-27T22:16:25.573Z,98857.91
2022-08-27T22:18:54.658Z,98862.88
2022-08-27T22:21:24.369Z,98861.94
2022-08-27T22:23:52.430Z,98868.50
2022-08-27T22:26:21.665Z,98871.56
2022-08-27T22:28:48.905Z,98869.16
2022-08-27T22:31:16.401Z,98862.72
2022-08-27T22:33:43.918Z,98864.97
2022-08-27T22:36:11.077Z,98865.59
2022-08-27T22:38:38.289Z,98855.34
2022-08-27T22:41:06.382Z,98850.53
2022-08-27T22:43:36.335Z,98859.34
2022-08-27T22:46:03.474Z,98865.53
2022-08-27T22:48:31.247Z,98868.56
2022-08-27T22:50:58.362Z,98859.75
2022-08-27T22:53:25.615Z,98862.19
2022-08-27T22:55:53.283Z,98865.22
2022-08-27T22:58:24.424Z,98861.38
2022-08-27T23:00:53.102Z,98858.97
2022-08-27T23:03:21.070Z,98861.84
2022-08-27T23:05:48.421Z,98866.00
2022-08-27T23:08:16.074Z,98861.69
2022-08-27T23:10:44.126Z,98866.66
2022-08-27T23:13:13.375Z,98865.66
2022-08-27T23:15:42.173Z,98868.38
2022-08-27T23:18:10.415Z,98870.63
2022-08-27T23:20:37.771Z,98869.66
2022-08-27T23:23:07.802Z,98865.66
2022-08-27T23:25:54.651Z,98874.94
2022-08-27T23:28:23.386Z,98874.78
2022-08-27T23:30:51.102Z,98871.53
2022-08-27T23:33:20.187Z,98868.97
2022-08-27T23:35:51.262Z,98879.84
2022-08-27T23:38:21.785Z,98885.97
2022-08-27T23:40:50.349Z,98874.56
2022-08-27T23:43:18.526Z,98879.50
2022-08-27T23:45:46.466Z,98880.94
2022-08-27T23:48:13.667Z,98884.00
2022-08-27T23:50:42.190Z,98883.50
2022-08-27T23:53:10.499Z,98878.69
2022-08-27T23:55:40.287Z,98880.59
2022-08-27T23:58:09.351Z,98880.44
